sensor_id;sensor_type;location;lat;lon;timestamp;P1;durP1;ratioP1;P2;durP2;ratioP2
43646;SDS011;56152;49.996;18.980;2022-12-07T00:03:36;15.23;;;8.87;;
43646;SDS011;56152;49.996;18.980;2022-12-07T00:08:41;12.00;;;8.40;;
43646;SDS011;56152;49.996;18.980;2022-12-07T00:13:47;12.73;;;7.87;;
43646;SDS011;56152;49.996;18.980;2022-12-07T00:18:55;12.60;;;8.40;;
43646;SDS011;56152;49.996;18.980;2022-12-07T00:23:57;11.03;;;7.60;;
43646;SDS011;56152;49.996;18.980;2022-12-07T00:29:03;14.50;;;8.57;;
43646;SDS011;56152;49.996;18.980;2022-12-07T00:34:06;12.10;;;7.30;;
43646;SDS011;56152;49.996;18.980;2022-12-07T00:39:16;18.37;;;10.00;;
43646;SDS011;56152;49.996;18.980;2022-12-07T00:44:20;14.57;;;10.33;;
43646;SDS011;56152;49.996;18.980;2022-12-07T00:49:22;16.40;;;10.50;;
43646;SDS011;56152;49.996;18.980;2022-12-07T00:54:24;13.07;;;9.83;;
43646;SDS011;56152;49.996;18.980;2022-12-07T00:59:28;16.73;;;10.40;;
43646;SDS011;56152;49.996;18.980;2022-12-07T01:04:33;14.10;;;9.80;;
43646;SDS011;56152;49.996;18.980;2022-12-07T01:09:35;14.40;;;10.53;;
43646;SDS011;56152;49.996;18.980;2022-12-07T01:14:41;14.63;;;10.20;;
43646;SDS011;56152;49.996;18.980;2022-12-07T01:19:43;14.73;;;9.87;;
43646;SDS011;56152;49.996;18.980;2022-12-07T01:24:45;14.13;;;9.97;;
43646;SDS011;56152;49.996;18.980;2022-12-07T01:29:52;12.67;;;9.47;;
43646;SDS011;56152;49.996;18.980;2022-12-07T01:35:06;15.70;;;10.97;;
43646;SDS011;56152;49.996;18.980;2022-12-07T01:40:10;18.17;;;12.57;;
43646;SDS011;56152;49.996;18.980;2022-12-07T01:50:47;17.10;;;12.50;;
43646;SDS011;56152;49.996;18.980;2022-12-07T01:55:58;19.63;;;13.50;;
43646;SDS011;56152;49.996;18.980;2022-12-07T02:01:02;18.97;;;13.67;;
43646;SDS011;56152;49.996;18.980;2022-12-07T02:06:05;21.60;;;14.30;;
43646;SDS011;56152;49.996;18.980;2022-12-07T02:11:12;20.63;;;15.40;;
43646;SDS011;56152;49.996;18.980;2022-12-07T02:16:34;21.73;;;15.52;;
43646;SDS011;56152;49.996;18.980;2022-12-07T02:21:45;24.53;;;15.60;;
43646;SDS011;56152;49.996;18.980;2022-12-07T02:32:46;22.83;;;16.40;;
43646;SDS011;56152;49.996;18.980;2022-12-07T02:37:57;21.33;;;16.13;;
43646;SDS011;56152;49.996;18.980;2022-12-07T02:43:16;22.53;;;16.50;;
43646;SDS011;56152;49.996;18.980;2022-12-07T02:48:23;23.80;;;16.95;;
43646;SDS011;56152;49.996;18.980;2022-12-07T02:53:34;28.10;;;16.40;;
43646;SDS011;56152;49.996;18.980;2022-12-07T02:58:43;24.10;;;16.23;;
43646;SDS011;56152;49.996;18.980;2022-12-07T03:03:56;25.37;;;17.73;;
43646;SDS011;56152;49.996;18.980;2022-12-07T03:09:06;24.55;;;17.63;;
43646;SDS011;56152;49.996;18.980;2022-12-07T03:14:17;25.60;;;17.17;;
43646;SDS011;56152;49.996;18.980;2022-12-07T03:19:24;27.00;;;17.83;;
43646;SDS011;56152;49.996;18.980;2022-12-07T03:24:30;27.43;;;18.27;;
43646;SDS011;56152;49.996;18.980;2022-12-07T03:29:38;28.90;;;19.15;;
43646;SDS011;56152;49.996;18.980;2022-12-07T03:34:55;24.23;;;17.67;;
43646;SDS011;56152;49.996;18.980;2022-12-07T03:40:05;24.93;;;17.30;;
43646;SDS011;56152;49.996;18.980;2022-12-07T03:45:12;30.83;;;18.67;;
43646;SDS011;56152;49.996;18.980;2022-12-07T03:50:21;26.70;;;17.87;;
43646;SDS011;56152;49.996;18.980;2022-12-07T03:55:32;24.97;;;18.10;;
43646;SDS011;56152;49.996;18.980;2022-12-07T04:00:40;27.90;;;18.05;;
43646;SDS011;56152;49.996;18.980;2022-12-07T04:05:44;22.97;;;16.47;;
43646;SDS011;56152;49.996;18.980;2022-12-07T04:10:46;19.10;;;14.50;;
43646;SDS011;56152;49.996;18.980;2022-12-07T04:15:48;22.60;;;15.60;;
43646;SDS011;56152;49.996;18.980;2022-12-07T04:20:52;27.23;;;17.80;;
43646;SDS011;56152;49.996;18.980;2022-12-07T04:25:54;25.53;;;16.70;;
43646;SDS011;56152;49.996;18.980;2022-12-07T04:31:05;23.00;;;16.57;;
43646;SDS011;56152;49.996;18.980;2022-12-07T04:36:09;23.17;;;15.30;;
43646;SDS011;56152;49.996;18.980;2022-12-07T04:41:12;30.80;;;20.83;;
43646;SDS011;56152;49.996;18.980;2022-12-07T04:46:14;30.47;;;18.60;;
43646;SDS011;56152;49.996;18.980;2022-12-07T04:51:20;27.07;;;16.03;;
43646;SDS011;56152;49.996;18.980;2022-12-07T04:56:24;26.13;;;16.00;;
43646;SDS011;56152;49.996;18.980;2022-12-07T05:06:35;41.27;;;24.30;;
43646;SDS011;56152;49.996;18.980;2022-12-07T05:11:41;31.30;;;18.33;;
43646;SDS011;56152;49.996;18.980;2022-12-07T05:16:47;41.17;;;21.90;;
43646;SDS011;56152;49.996;18.980;2022-12-07T05:21:53;34.73;;;23.93;;
43646;SDS011;56152;49.996;18.980;2022-12-07T05:26:56;28.90;;;20.50;;
43646;SDS011;56152;49.996;18.980;2022-12-07T05:31:59;35.83;;;19.50;;
43646;SDS011;56152;49.996;18.980;2022-12-07T05:37:06;30.60;;;19.00;;
43646;SDS011;56152;49.996;18.980;2022-12-07T05:42:08;28.07;;;18.00;;
43646;SDS011;56152;49.996;18.980;2022-12-07T05:47:15;23.03;;;15.17;;
43646;SDS011;56152;49.996;18.980;2022-12-07T05:52:19;29.40;;;19.43;;
43646;SDS011;56152;49.996;18.980;2022-12-07T05:57:21;28.57;;;17.57;;
43646;SDS011;56152;49.996;18.980;2022-12-07T06:02:23;28.60;;;16.43;;
43646;SDS011;56152;49.996;18.980;2022-12-07T06:07:28;26.07;;;17.27;;
43646;SDS011;56152;49.996;18.980;2022-12-07T06:12:30;28.97;;;19.63;;
43646;SDS011;56152;49.996;18.980;2022-12-07T06:17:38;32.90;;;19.37;;
43646;SDS011;56152;49.996;18.980;2022-12-07T06:22:42;30.70;;;18.23;;
43646;SDS011;56152;49.996;18.980;2022-12-07T06:27:48;29.27;;;17.40;;
43646;SDS011;56152;49.996;18.980;2022-12-07T06:32:51;29.40;;;18.07;;
43646;SDS011;56152;49.996;18.980;2022-12-07T06:37:56;27.77;;;18.00;;
43646;SDS011;56152;49.996;18.980;2022-12-07T06:42:58;45.30;;;22.93;;
43646;SDS011;56152;49.996;18.980;2022-12-07T06:48:17;29.33;;;18.17;;
43646;SDS011;56152;49.996;18.980;2022-12-07T06:53:21;38.83;;;23.83;;
43646;SDS011;56152;49.996;18.980;2022-12-07T06:58:27;25.93;;;17.23;;
43646;SDS011;56152;49.996;18.980;2022-12-07T07:03:28;32.03;;;21.20;;
43646;SDS011;56152;49.996;18.980;2022-12-07T07:08:33;33.93;;;20.07;;
43646;SDS011;56152;49.996;18.980;2022-12-07T07:13:35;36.93;;;23.93;;
43646;SDS011;56152;49.996;18.980;2022-12-07T07:18:37;41.03;;;25.50;;
43646;SDS011;56152;49.996;18.980;2022-12-07T07:23:42;45.27;;;24.80;;
43646;SDS011;56152;49.996;18.980;2022-12-07T07:28:44;33.57;;;22.07;;
43646;SDS011;56152;49.996;18.980;2022-12-07T07:33:52;32.37;;;18.80;;
43646;SDS011;56152;49.996;18.980;2022-12-07T07:38:59;29.70;;;18.80;;
43646;SDS011;56152;49.996;18.980;2022-12-07T07:44:01;38.23;;;24.17;;
43646;SDS011;56152;49.996;18.980;2022-12-07T07:49:08;46.27;;;25.63;;
43646;SDS011;56152;49.996;18.980;2022-12-07T07:59:18;48.37;;;27.47;;
43646;SDS011;56152;49.996;18.980;2022-12-07T08:04:22;35.13;;;19.90;;
43646;SDS011;56152;49.996;18.980;2022-12-07T08:09:27;25.60;;;17.13;;
43646;SDS011;56152;49.996;18.980;2022-12-07T08:14:30;28.47;;;17.23;;
43646;SDS011;56152;49.996;18.980;2022-12-07T08:19:33;27.63;;;18.30;;
43646;SDS011;56152;49.996;18.980;2022-12-07T08:24:38;28.63;;;18.57;;
43646;SDS011;56152;49.996;18.980;2022-12-07T08:29:42;27.63;;;17.07;;
43646;SDS011;56152;49.996;18.980;2022-12-07T08:34:45;26.50;;;18.30;;
43646;SDS011;56152;49.996;18.980;2022-12-07T08:39:58;26.60;;;18.47;;
43646;SDS011;56152;49.996;18.980;2022-12-07T08:45:00;25.67;;;16.63;;
43646;SDS011;56152;49.996;18.980;2022-12-07T08:50:04;22.03;;;12.73;;
43646;SDS011;56152;49.996;18.980;2022-12-07T08:55:14;21.80;;;12.70;;
43646;SDS011;56152;49.996;18.980;2022-12-07T09:00:18;16.57;;;10.60;;
43646;SDS011;56152;49.996;18.980;2022-12-07T09:05:23;14.23;;;9.30;;
43646;SDS011;56152;49.996;18.980;2022-12-07T09:10:27;12.23;;;8.13;;
43646;SDS011;56152;49.996;18.980;2022-12-07T09:15:29;13.77;;;9.27;;
43646;SDS011;56152;49.996;18.980;2022-12-07T09:20:40;13.63;;;8.47;;
43646;SDS011;56152;49.996;18.980;2022-12-07T09:25:49;11.13;;;7.73;;
43646;SDS011;56152;49.996;18.980;2022-12-07T09:30:52;13.30;;;8.97;;
43646;SDS011;56152;49.996;18.980;2022-12-07T09:35:57;12.10;;;7.57;;
43646;SDS011;56152;49.996;18.980;2022-12-07T09:41:06;12.87;;;8.80;;
43646;SDS011;56152;49.996;18.980;2022-12-07T09:46:09;11.23;;;7.97;;
43646;SDS011;56152;49.996;18.980;2022-12-07T09:51:16;10.68;;;7.53;;
43646;SDS011;56152;49.996;18.980;2022-12-07T09:56:30;11.17;;;7.03;;
43646;SDS011;56152;49.996;18.980;2022-12-07T10:06:35;8.37;;;6.67;;
43646;SDS011;56152;49.996;18.980;2022-12-07T10:17:17;11.83;;;8.00;;
43646;SDS011;56152;49.996;18.980;2022-12-07T10:22:31;13.23;;;8.45;;
43646;SDS011;56152;49.996;18.980;2022-12-07T10:27:40;16.13;;;8.27;;
43646;SDS011;56152;49.996;18.980;2022-12-07T10:32:46;10.30;;;7.57;;
43646;SDS011;56152;49.996;18.980;2022-12-07T10:37:48;10.60;;;7.20;;
43646;SDS011;56152;49.996;18.980;2022-12-07T10:43:02;12.48;;;6.65;;
43646;SDS011;56152;49.996;18.980;2022-12-07T10:48:07;8.95;;;6.03;;
43646;SDS011;56152;49.996;18.980;2022-12-07T10:53:18;7.78;;;5.30;;
43646;SDS011;56152;49.996;18.980;2022-12-07T10:58:51;8.13;;;5.57;;
43646;SDS011;56152;49.996;18.980;2022-12-07T11:04:10;11.43;;;7.57;;
43646;SDS011;56152;49.996;18.980;2022-12-07T11:15:03;7.63;;;5.30;;
43646;SDS011;56152;49.996;18.980;2022-12-07T11:20:16;7.05;;;4.82;;
43646;SDS011;56152;49.996;18.980;2022-12-07T11:25:31;6.78;;;5.50;;
43646;SDS011;56152;49.996;18.980;2022-12-07T11:30:42;6.30;;;4.40;;
43646;SDS011;56152;49.996;18.980;2022-12-07T11:36:04;6.88;;;4.78;;
43646;SDS011;56152;49.996;18.980;2022-12-07T11:41:33;6.68;;;5.40;;
43646;SDS011;56152;49.996;18.980;2022-12-07T11:46:45;9.87;;;5.50;;
43646;SDS011;56152;49.996;18.980;2022-12-07T11:51:52;11.33;;;5.67;;
43646;SDS011;56152;49.996;18.980;2022-12-07T11:57:00;6.95;;;4.72;;
43646;SDS011;56152;49.996;18.980;2022-12-07T12:02:11;7.43;;;4.70;;
43646;SDS011;56152;49.996;18.980;2022-12-07T12:07:16;6.95;;;3.80;;
43646;SDS011;56152;49.996;18.980;2022-12-07T12:12:36;8.20;;;4.47;;
43646;SDS011;56152;49.996;18.980;2022-12-07T12:18:07;6.28;;;4.65;;
43646;SDS011;56152;49.996;18.980;2022-12-07T12:23:35;5.18;;;3.65;;
43646;SDS011;56152;49.996;18.980;2022-12-07T12:28:48;10.52;;;4.57;;
43646;SDS011;56152;49.996;18.980;2022-12-07T12:33:57;6.93;;;5.03;;
43646;SDS011;56152;49.996;18.980;2022-12-07T12:39:10;7.93;;;5.85;;
43646;SDS011;56152;49.996;18.980;2022-12-07T12:49:42;7.90;;;5.57;;
43646;SDS011;56152;49.996;18.980;2022-12-07T12:54:57;8.68;;;5.45;;
43646;SDS011;56152;49.996;18.980;2022-12-07T13:00:02;8.40;;;4.97;;
43646;SDS011;56152;49.996;18.980;2022-12-07T13:05:25;7.82;;;5.40;;
43646;SDS011;56152;49.996;18.980;2022-12-07T13:10:44;6.50;;;5.35;;
43646;SDS011;56152;49.996;18.980;2022-12-07T13:15:49;7.25;;;5.50;;
43646;SDS011;56152;49.996;18.980;2022-12-07T13:20:55;11.35;;;5.78;;
43646;SDS011;56152;49.996;18.980;2022-12-07T13:26:09;8.35;;;5.88;;
43646;SDS011;56152;49.996;18.980;2022-12-07T13:31:32;9.43;;;5.95;;
43646;SDS011;56152;49.996;18.980;2022-12-07T13:36:39;7.78;;;6.20;;
43646;SDS011;56152;49.996;18.980;2022-12-07T13:41:49;8.75;;;6.30;;
43646;SDS011;56152;49.996;18.980;2022-12-07T13:46:56;14.63;;;8.57;;
43646;SDS011;56152;49.996;18.980;2022-12-07T13:52:14;8.98;;;7.03;;
43646;SDS011;56152;49.996;18.980;2022-12-07T13:57:18;9.80;;;7.03;;
43646;SDS011;56152;49.996;18.980;2022-12-07T14:02:21;12.57;;;7.55;;
43646;SDS011;56152;49.996;18.980;2022-12-07T14:07:29;10.02;;;7.13;;
43646;SDS011;56152;49.996;18.980;2022-12-07T14:12:35;11.35;;;7.88;;
43646;SDS011;56152;49.996;18.980;2022-12-07T14:17:49;10.10;;;7.32;;
43646;SDS011;56152;49.996;18.980;2022-12-07T14:22:55;11.43;;;6.70;;
43646;SDS011;56152;49.996;18.980;2022-12-07T14:27:58;13.88;;;8.75;;
43646;SDS011;56152;49.996;18.980;2022-12-07T14:33:04;14.85;;;7.70;;
43646;SDS011;56152;49.996;18.980;2022-12-07T14:38:12;11.73;;;7.05;;
43646;SDS011;56152;49.996;18.980;2022-12-07T14:43:15;13.43;;;8.77;;
43646;SDS011;56152;49.996;18.980;2022-12-07T14:48:22;14.23;;;8.23;;
43646;SDS011;56152;49.996;18.980;2022-12-07T14:53:28;15.43;;;8.53;;
43646;SDS011;56152;49.996;18.980;2022-12-07T14:58:33;14.55;;;7.93;;
43646;SDS011;56152;49.996;18.980;2022-12-07T15:03:38;12.85;;;8.23;;
43646;SDS011;56152;49.996;18.980;2022-12-07T15:08:43;14.50;;;7.77;;
43646;SDS011;56152;49.996;18.980;2022-12-07T15:13:45;13.70;;;7.95;;
43646;SDS011;56152;49.996;18.980;2022-12-07T15:19:05;13.70;;;7.63;;
43646;SDS011;56152;49.996;18.980;2022-12-07T15:24:12;12.60;;;7.65;;
43646;SDS011;56152;49.996;18.980;2022-12-07T15:29:14;13.13;;;7.88;;
43646;SDS011;56152;49.996;18.980;2022-12-07T15:34:17;18.75;;;9.63;;
43646;SDS011;56152;49.996;18.980;2022-12-07T15:39:21;13.77;;;8.82;;
43646;SDS011;56152;49.996;18.980;2022-12-07T15:44:23;13.88;;;7.50;;
43646;SDS011;56152;49.996;18.980;2022-12-07T15:49:42;18.77;;;8.83;;
43646;SDS011;56152;49.996;18.980;2022-12-07T15:54:47;16.60;;;9.30;;
43646;SDS011;56152;49.996;18.980;2022-12-07T15:59:49;15.20;;;8.60;;
43646;SDS011;56152;49.996;18.980;2022-12-07T16:04:54;16.00;;;9.43;;
43646;SDS011;56152;49.996;18.980;2022-12-07T16:10:08;15.23;;;8.55;;
43646;SDS011;56152;49.996;18.980;2022-12-07T16:15:11;12.90;;;7.57;;
43646;SDS011;56152;49.996;18.980;2022-12-07T16:20:22;12.35;;;8.10;;
43646;SDS011;56152;49.996;18.980;2022-12-07T16:30:42;13.77;;;8.67;;
43646;SDS011;56152;49.996;18.980;2022-12-07T16:35:48;15.60;;;8.97;;
43646;SDS011;56152;49.996;18.980;2022-12-07T16:40:54;10.50;;;6.77;;
43646;SDS011;56152;49.996;18.980;2022-12-07T16:45:57;10.97;;;7.17;;
43646;SDS011;56152;49.996;18.980;2022-12-07T16:51:04;13.60;;;7.70;;
43646;SDS011;56152;49.996;18.980;2022-12-07T16:56:15;11.00;;;6.40;;
43646;SDS011;56152;49.996;18.980;2022-12-07T17:01:19;12.70;;;7.97;;
43646;SDS011;56152;49.996;18.980;2022-12-07T17:06:24;12.07;;;7.27;;
43646;SDS011;56152;49.996;18.980;2022-12-07T17:11:30;11.53;;;7.40;;
43646;SDS011;56152;49.996;18.980;2022-12-07T17:16:32;12.43;;;8.03;;
43646;SDS011;56152;49.996;18.980;2022-12-07T17:21:36;16.10;;;9.33;;
43646;SDS011;56152;49.996;18.980;2022-12-07T17:26:41;15.13;;;9.60;;
43646;SDS011;56152;49.996;18.980;2022-12-07T17:31:46;21.07;;;11.17;;
43646;SDS011;56152;49.996;18.980;2022-12-07T17:36:49;14.97;;;9.70;;
43646;SDS011;56152;49.996;18.980;2022-12-07T17:41:59;23.67;;;13.40;;
43646;SDS011;56152;49.996;18.980;2022-12-07T17:47:18;26.43;;;14.07;;
43646;SDS011;56152;49.996;18.980;2022-12-07T17:52:22;21.40;;;11.13;;
43646;SDS011;56152;49.996;18.980;2022-12-07T17:57:42;21.13;;;11.43;;
43646;SDS011;56152;49.996;18.980;2022-12-07T18:02:45;16.57;;;10.03;;
43646;SDS011;56152;49.996;18.980;2022-12-07T18:07:47;18.47;;;10.90;;
43646;SDS011;56152;49.996;18.980;2022-12-07T18:12:51;28.73;;;14.03;;
43646;SDS011;56152;49.996;18.980;2022-12-07T18:18:16;26.33;;;13.40;;
43646;SDS011;56152;49.996;18.980;2022-12-07T18:23:21;23.60;;;12.67;;
43646;SDS011;56152;49.996;18.980;2022-12-07T18:28:25;25.70;;;12.67;;
43646;SDS011;56152;49.996;18.980;2022-12-07T18:33:27;20.10;;;10.77;;
43646;SDS011;56152;49.996;18.980;2022-12-07T18:38:29;24.40;;;12.10;;
43646;SDS011;56152;49.996;18.980;2022-12-07T18:43:35;17.70;;;10.03;;
43646;SDS011;56152;49.996;18.980;2022-12-07T18:48:41;19.53;;;10.43;;
43646;SDS011;56152;49.996;18.980;2022-12-07T18:53:46;31.30;;;14.80;;
43646;SDS011;56152;49.996;18.980;2022-12-07T18:59:00;25.60;;;12.30;;
43646;SDS011;56152;49.996;18.980;2022-12-07T19:04:21;16.70;;;8.77;;
43646;SDS011;56152;49.996;18.980;2022-12-07T19:09:23;33.03;;;17.57;;
43646;SDS011;56152;49.996;18.980;2022-12-07T19:14:28;16.30;;;10.10;;
43646;SDS011;56152;49.996;18.980;2022-12-07T19:19:36;19.13;;;10.60;;
43646;SDS011;56152;49.996;18.980;2022-12-07T19:24:40;20.20;;;9.83;;
43646;SDS011;56152;49.996;18.980;2022-12-07T19:29:48;22.00;;;11.40;;
43646;SDS011;56152;49.996;18.980;2022-12-07T19:34:52;18.47;;;9.37;;
43646;SDS011;56152;49.996;18.980;2022-12-07T19:39:55;20.87;;;9.83;;
43646;SDS011;56152;49.996;18.980;2022-12-07T19:45:07;23.37;;;10.60;;
43646;SDS011;56152;49.996;18.980;2022-12-07T19:50:10;16.67;;;8.97;;
43646;SDS011;56152;49.996;18.980;2022-12-07T19:55:20;13.25;;;7.15;;
43646;SDS011;56152;49.996;18.980;2022-12-07T20:00:26;13.10;;;7.60;;
43646;SDS011;56152;49.996;18.980;2022-12-07T20:05:28;14.23;;;7.23;;
43646;SDS011;56152;49.996;18.980;2022-12-07T20:10:31;13.80;;;6.73;;
43646;SDS011;56152;49.996;18.980;2022-12-07T20:15:42;15.47;;;8.17;;
43646;SDS011;56152;49.996;18.980;2022-12-07T20:20:51;10.83;;;7.27;;
43646;SDS011;56152;49.996;18.980;2022-12-07T20:25:54;14.13;;;8.10;;
43646;SDS011;56152;49.996;18.980;2022-12-07T20:31:01;11.83;;;6.93;;
43646;SDS011;56152;49.996;18.980;2022-12-07T20:36:06;13.20;;;6.67;;
43646;SDS011;56152;49.996;18.980;2022-12-07T20:41:11;14.90;;;7.33;;
43646;SDS011;56152;49.996;18.980;2022-12-07T20:46:30;14.43;;;7.57;;
43646;SDS011;56152;49.996;18.980;2022-12-07T20:51:32;13.83;;;7.53;;
43646;SDS011;56152;49.996;18.980;2022-12-07T20:56:34;12.80;;;7.50;;
43646;SDS011;56152;49.996;18.980;2022-12-07T21:01:39;15.87;;;8.17;;
43646;SDS011;56152;49.996;18.980;2022-12-07T21:06:41;15.33;;;7.90;;
43646;SDS011;56152;49.996;18.980;2022-12-07T21:11:44;12.83;;;7.47;;
43646;SDS011;56152;49.996;18.980;2022-12-07T21:16:50;12.20;;;7.20;;
43646;SDS011;56152;49.996;18.980;2022-12-07T21:21:54;14.33;;;7.80;;
43646;SDS011;56152;49.996;18.980;2022-12-07T21:26:58;15.23;;;8.00;;
43646;SDS011;56152;49.996;18.980;2022-12-07T21:32:02;13.77;;;7.83;;
43646;SDS011;56152;49.996;18.980;2022-12-07T21:37:06;17.03;;;8.13;;
43646;SDS011;56152;49.996;18.980;2022-12-07T21:42:14;16.47;;;8.23;;
43646;SDS011;56152;49.996;18.980;2022-12-07T21:47:18;15.47;;;7.77;;
43646;SDS011;56152;49.996;18.980;2022-12-07T21:52:29;14.93;;;8.20;;
43646;SDS011;56152;49.996;18.980;2022-12-07T21:57:32;15.60;;;8.20;;
43646;SDS011;56152;49.996;18.980;2022-12-07T22:02:40;16.77;;;8.67;;
43646;SDS011;56152;49.996;18.980;2022-12-07T22:07:44;14.13;;;7.70;;
43646;SDS011;56152;49.996;18.980;2022-12-07T22:12:48;13.60;;;8.93;;
43646;SDS011;56152;49.996;18.980;2022-12-07T22:17:52;16.40;;;8.60;;
43646;SDS011;56152;49.996;18.980;2022-12-07T22:22:54;13.77;;;7.83;;
43646;SDS011;56152;49.996;18.980;2022-12-07T22:27:56;15.07;;;8.43;;
43646;SDS011;56152;49.996;18.980;2022-12-07T22:32:59;12.50;;;6.97;;
43646;SDS011;56152;49.996;18.980;2022-12-07T22:38:02;18.60;;;9.37;;
43646;SDS011;56152;49.996;18.980;2022-12-07T22:43:07;17.97;;;9.73;;
43646;SDS011;56152;49.996;18.980;2022-12-07T22:48:24;14.37;;;8.17;;
43646;SDS011;56152;49.996;18.980;2022-12-07T22:53:29;19.27;;;9.15;;
43646;SDS011;56152;49.996;18.980;2022-12-07T22:58:31;17.13;;;8.93;;
43646;SDS011;56152;49.996;18.980;2022-12-07T23:03:35;20.47;;;9.43;;
43646;SDS011;56152;49.996;18.980;2022-12-07T23:08:38;16.70;;;8.30;;
43646;SDS011;56152;49.996;18.980;2022-12-07T23:13:40;15.33;;;8.23;;
43646;SDS011;56152;49.996;18.980;2022-12-07T23:18:45;13.27;;;8.17;;
43646;SDS011;56152;49.996;18.980;2022-12-07T23:23:48;19.87;;;8.17;;
43646;SDS011;56152;49.996;18.980;2022-12-07T23:28:51;16.47;;;8.20;;
43646;SDS011;56152;49.996;18.980;2022-12-07T23:33:56;17.00;;;9.37;;
43646;SDS011;56152;49.996;18.980;2022-12-07T23:38:58;13.53;;;8.07;;
43646;SDS011;56152;49.996;18.980;2022-12-07T23:44:00;15.30;;;8.27;;
43646;SDS011;56152;49.996;18.980;2022-12-07T23:49:05;15.10;;;7.93;;
43646;SDS011;56152;49.996;18.980;2022-12-07T23:54:12;12.73;;;7.73;;
43646;SDS011;56152;49.996;18.980;2022-12-07T23:59:14;12.00;;;8.30;;
